CheckWX is a tool to help pilots better visualize weather data.  It is not intended as a substitute for an official pre-flight weather briefing.

02:15:27 UTC

M19 METAR
Newport Regional Airport
Newport, Arkansas, USA
Current

19 mins ago

KM19 130156Z AUTO 15003KT 10SM CLR 03/01 A3017 RMK AO2 SLP218 T00330006
Observed
Dec-13 @ 01:56 UTC
Wind
  • 150° at 3 KTS
Visibility
10 SM
Flight Rules
VFR
Cloud Levels
  • Clear skies
Temperature
C / 37°F
Dewpoint
C / 34°F
Humidity
87%
Altimeter
30.17" Hg
Pressure
1021.72 hPa
Previous

1 hour ago

KM19 130056Z AUTO 15003KT 10SM CLR 05/00 A3018 RMK AO2 SLP221 T00500000
Observed
Dec-13 @ 00:56 UTC
Wind
  • 150° at 3 KTS
Visibility
10 SM
Flight Rules
VFR
Cloud Levels
  • Clear skies
Temperature
C / 41°F
Dewpoint
C / 32°F
Humidity
70%
Altimeter
30.18" Hg
Pressure
1022.02 hPa
Previous

2 hours ago

KM19 122356Z AUTO 14008KT 10SM CLR 04/01 A3017 RMK AO2 SLP216 T00440006 10111 20044 58013
Observed
Dec-12 @ 23:56 UTC
Wind
  • 140° at 8 KTS
Visibility
10 SM
Flight Rules
VFR
Cloud Levels
  • Clear skies
Temperature
C / 39°F
Dewpoint
C / 34°F
Humidity
81%
Altimeter
30.17" Hg
Pressure
1021.72 hPa